sensor_id;sensor_type;location;lat;lon;timestamp;P1;durP1;ratioP1;P2;durP2;ratioP2
35592;SDS011;64447;52.140;5.602;2023-01-29T00:00:50;33.35;;;19.88;;
35592;SDS011;64447;52.140;5.602;2023-01-29T00:03:16;31.73;;;18.83;;
35592;SDS011;64447;52.140;5.602;2023-01-29T00:05:41;31.92;;;18.77;;
35592;SDS011;64447;52.140;5.602;2023-01-29T00:08:07;33.63;;;19.15;;
35592;SDS011;64447;52.140;5.602;2023-01-29T00:10:32;31.88;;;18.58;;
35592;SDS011;64447;52.140;5.602;2023-01-29T00:12:58;32.10;;;18.02;;
35592;SDS011;64447;52.140;5.602;2023-01-29T00:15:23;34.17;;;20.00;;
35592;SDS011;64447;52.140;5.602;2023-01-29T00:17:49;32.90;;;18.27;;
35592;SDS011;64447;52.140;5.602;2023-01-29T00:20:15;34.10;;;18.85;;
35592;SDS011;64447;52.140;5.602;2023-01-29T00:26:02;30.67;;;18.15;;
35592;SDS011;64447;52.140;5.602;2023-01-29T00:28:28;34.13;;;18.98;;
35592;SDS011;64447;52.140;5.602;2023-01-29T00:30:54;30.17;;;18.70;;
35592;SDS011;64447;52.140;5.602;2023-01-29T00:33:20;32.30;;;18.20;;
35592;SDS011;64447;52.140;5.602;2023-01-29T00:35:45;31.65;;;19.55;;
35592;SDS011;64447;52.140;5.602;2023-01-29T00:38:11;34.88;;;19.40;;
35592;SDS011;64447;52.140;5.602;2023-01-29T00:40:37;31.00;;;18.85;;
35592;SDS011;64447;52.140;5.602;2023-01-29T00:43:22;32.90;;;19.17;;
35592;SDS011;64447;52.140;5.602;2023-01-29T00:46:07;33.97;;;20.15;;
35592;SDS011;64447;52.140;5.602;2023-01-29T00:48:33;35.92;;;21.00;;
35592;SDS011;64447;52.140;5.602;2023-01-29T00:50:59;34.47;;;19.13;;
35592;SDS011;64447;52.140;5.602;2023-01-29T00:53:26;33.42;;;19.60;;
35592;SDS011;64447;52.140;5.602;2023-01-29T00:55:52;36.30;;;20.45;;
35592;SDS011;64447;52.140;5.602;2023-01-29T00:58:18;33.08;;;19.83;;
35592;SDS011;64447;52.140;5.602;2023-01-29T01:00:49;37.08;;;19.58;;
35592;SDS011;64447;52.140;5.602;2023-01-29T01:03:16;32.58;;;19.98;;
35592;SDS011;64447;52.140;5.602;2023-01-29T01:05:41;32.08;;;18.90;;
35592;SDS011;64447;52.140;5.602;2023-01-29T01:11:29;35.90;;;19.85;;
35592;SDS011;64447;52.140;5.602;2023-01-29T01:13:54;32.15;;;19.30;;
35592;SDS011;64447;52.140;5.602;2023-01-29T01:16:26;34.25;;;20.48;;
35592;SDS011;64447;52.140;5.602;2023-01-29T01:18:51;34.85;;;19.80;;
35592;SDS011;64447;52.140;5.602;2023-01-29T01:21:17;32.28;;;19.08;;
35592;SDS011;64447;52.140;5.602;2023-01-29T01:23:42;35.08;;;21.02;;
35592;SDS011;64447;52.140;5.602;2023-01-29T01:26:08;35.03;;;19.35;;
35592;SDS011;64447;52.140;5.602;2023-01-29T01:28:34;33.58;;;18.80;;
35592;SDS011;64447;52.140;5.602;2023-01-29T01:31:11;32.58;;;19.88;;
35592;SDS011;64447;52.140;5.602;2023-01-29T01:33:38;30.88;;;18.30;;
35592;SDS011;64447;52.140;5.602;2023-01-29T01:36:04;30.58;;;18.30;;
35592;SDS011;64447;52.140;5.602;2023-01-29T01:38:37;34.35;;;19.88;;
35592;SDS011;64447;52.140;5.602;2023-01-29T01:41:08;32.97;;;19.85;;
35592;SDS011;64447;52.140;5.602;2023-01-29T01:43:48;31.60;;;19.08;;
35592;SDS011;64447;52.140;5.602;2023-01-29T01:46:17;33.47;;;19.73;;
35592;SDS011;64447;52.140;5.602;2023-01-29T01:48:43;32.92;;;19.27;;
35592;SDS011;64447;52.140;5.602;2023-01-29T01:51:13;32.03;;;19.25;;
35592;SDS011;64447;52.140;5.602;2023-01-29T01:53:45;33.58;;;19.20;;
35592;SDS011;64447;52.140;5.602;2023-01-29T01:56:22;35.08;;;20.23;;
35592;SDS011;64447;52.140;5.602;2023-01-29T01:58:54;33.63;;;20.75;;
35592;SDS011;64447;52.140;5.602;2023-01-29T02:01:22;30.42;;;18.77;;
35592;SDS011;64447;52.140;5.602;2023-01-29T02:03:55;31.80;;;18.92;;
35592;SDS011;64447;52.140;5.602;2023-01-29T02:06:51;33.28;;;19.42;;
35592;SDS011;64447;52.140;5.602;2023-01-29T02:09:48;30.58;;;18.58;;
35592;SDS011;64447;52.140;5.602;2023-01-29T02:12:15;31.13;;;19.38;;
35592;SDS011;64447;52.140;5.602;2023-01-29T02:14:41;31.63;;;18.80;;
35592;SDS011;64447;52.140;5.602;2023-01-29T02:17:14;31.98;;;19.20;;
35592;SDS011;64447;52.140;5.602;2023-01-29T02:22:25;30.55;;;19.08;;
35592;SDS011;64447;52.140;5.602;2023-01-29T02:33:25;32.60;;;19.35;;
35592;SDS011;64447;52.140;5.602;2023-01-29T02:39:41;32.25;;;19.40;;
35592;SDS011;64447;52.140;5.602;2023-01-29T02:42:35;31.80;;;19.88;;
35592;SDS011;64447;52.140;5.602;2023-01-29T02:45:09;31.77;;;18.67;;
35592;SDS011;64447;52.140;5.602;2023-01-29T02:47:59;34.47;;;20.00;;
35592;SDS011;64447;52.140;5.602;2023-01-29T02:57:36;32.40;;;19.23;;
35592;SDS011;64447;52.140;5.602;2023-01-29T03:02:42;33.58;;;18.85;;
35592;SDS011;64447;52.140;5.602;2023-01-29T03:05:13;31.88;;;19.83;;
35592;SDS011;64447;52.140;5.602;2023-01-29T03:11:04;35.03;;;19.35;;
35592;SDS011;64447;52.140;5.602;2023-01-29T03:16:10;31.00;;;18.45;;
35592;SDS011;64447;52.140;5.602;2023-01-29T03:18:45;33.92;;;20.15;;
35592;SDS011;64447;52.140;5.602;2023-01-29T03:21:20;32.33;;;18.92;;
35592;SDS011;64447;52.140;5.602;2023-01-29T03:24:11;35.03;;;19.85;;
35592;SDS011;64447;52.140;5.602;2023-01-29T03:26:57;32.63;;;19.10;;
35592;SDS011;64447;52.140;5.602;2023-01-29T03:29:45;33.83;;;19.85;;
35592;SDS011;64447;52.140;5.602;2023-01-29T03:32:32;35.33;;;19.80;;
35592;SDS011;64447;52.140;5.602;2023-01-29T03:35:00;32.33;;;20.05;;
35592;SDS011;64447;52.140;5.602;2023-01-29T03:37:33;35.55;;;19.50;;
35592;SDS011;64447;52.140;5.602;2023-01-29T03:40:06;38.70;;;19.98;;
35592;SDS011;64447;52.140;5.602;2023-01-29T03:51:00;32.95;;;20.20;;
35592;SDS011;64447;52.140;5.602;2023-01-29T03:53:28;35.78;;;20.73;;
35592;SDS011;64447;52.140;5.602;2023-01-29T03:56:13;30.65;;;18.95;;
35592;SDS011;64447;52.140;5.602;2023-01-29T03:58:50;37.40;;;21.23;;
35592;SDS011;64447;52.140;5.602;2023-01-29T04:01:19;33.75;;;20.52;;
35592;SDS011;64447;52.140;5.602;2023-01-29T04:03:54;32.20;;;20.23;;
35592;SDS011;64447;52.140;5.602;2023-01-29T04:10:04;34.67;;;20.23;;
35592;SDS011;64447;52.140;5.602;2023-01-29T04:12:49;38.08;;;21.58;;
35592;SDS011;64447;52.140;5.602;2023-01-29T04:15:27;36.97;;;22.23;;
35592;SDS011;64447;52.140;5.602;2023-01-29T04:18:00;37.78;;;21.10;;
35592;SDS011;64447;52.140;5.602;2023-01-29T04:20:26;35.80;;;21.38;;
35592;SDS011;64447;52.140;5.602;2023-01-29T04:26:18;38.17;;;22.33;;
35592;SDS011;64447;52.140;5.602;2023-01-29T04:29:03;36.22;;;21.45;;
35592;SDS011;64447;52.140;5.602;2023-01-29T04:31:49;36.25;;;21.98;;
35592;SDS011;64447;52.140;5.602;2023-01-29T04:34:22;38.78;;;22.88;;
35592;SDS011;64447;52.140;5.602;2023-01-29T04:37:09;39.90;;;21.30;;
35592;SDS011;64447;52.140;5.602;2023-01-29T04:39:54;37.05;;;21.58;;
35592;SDS011;64447;52.140;5.602;2023-01-29T04:42:55;37.00;;;22.20;;
35592;SDS011;64447;52.140;5.602;2023-01-29T04:48:44;37.97;;;21.98;;
35592;SDS011;64447;52.140;5.602;2023-01-29T04:54:50;36.95;;;21.52;;
35592;SDS011;64447;52.140;5.602;2023-01-29T04:57:39;36.78;;;21.98;;
35592;SDS011;64447;52.140;5.602;2023-01-29T05:00:15;38.95;;;23.20;;
35592;SDS011;64447;52.140;5.602;2023-01-29T05:02:44;43.88;;;23.77;;
35592;SDS011;64447;52.140;5.602;2023-01-29T05:05:11;35.67;;;22.50;;
35592;SDS011;64447;52.140;5.602;2023-01-29T05:11:00;38.75;;;22.70;;
35592;SDS011;64447;52.140;5.602;2023-01-29T05:13:27;37.63;;;21.63;;
35592;SDS011;64447;52.140;5.602;2023-01-29T05:16:03;40.10;;;22.23;;
35592;SDS011;64447;52.140;5.602;2023-01-29T05:18:36;38.38;;;22.33;;
35592;SDS011;64447;52.140;5.602;2023-01-29T05:21:03;37.38;;;21.88;;
35592;SDS011;64447;52.140;5.602;2023-01-29T05:26:53;38.22;;;23.52;;
35592;SDS011;64447;52.140;5.602;2023-01-29T05:29:42;39.75;;;22.15;;
35592;SDS011;64447;52.140;5.602;2023-01-29T05:32:10;41.75;;;23.67;;
35592;SDS011;64447;52.140;5.602;2023-01-29T05:34:35;37.08;;;21.88;;
35592;SDS011;64447;52.140;5.602;2023-01-29T05:37:01;37.65;;;21.17;;
35592;SDS011;64447;52.140;5.602;2023-01-29T05:39:27;38.58;;;22.45;;
35592;SDS011;64447;52.140;5.602;2023-01-29T05:41:52;35.20;;;21.17;;
35592;SDS011;64447;52.140;5.602;2023-01-29T05:44:18;36.33;;;22.55;;
35592;SDS011;64447;52.140;5.602;2023-01-29T05:46:44;34.15;;;22.45;;
35592;SDS011;64447;52.140;5.602;2023-01-29T05:49:10;36.45;;;22.00;;
35592;SDS011;64447;52.140;5.602;2023-01-29T05:51:36;35.33;;;22.52;;
35592;SDS011;64447;52.140;5.602;2023-01-29T05:54:01;35.35;;;22.17;;
35592;SDS011;64447;52.140;5.602;2023-01-29T05:56:27;38.25;;;22.35;;
35592;SDS011;64447;52.140;5.602;2023-01-29T05:58:53;35.63;;;22.15;;
35592;SDS011;64447;52.140;5.602;2023-01-29T06:01:20;36.83;;;22.90;;
35592;SDS011;64447;52.140;5.602;2023-01-29T06:03:47;35.22;;;22.73;;
35592;SDS011;64447;52.140;5.602;2023-01-29T06:06:13;38.40;;;22.02;;
35592;SDS011;64447;52.140;5.602;2023-01-29T06:12:00;38.03;;;22.25;;
35592;SDS011;64447;52.140;5.602;2023-01-29T06:14:26;32.38;;;21.33;;
35592;SDS011;64447;52.140;5.602;2023-01-29T06:16:52;37.35;;;22.77;;
35592;SDS011;64447;52.140;5.602;2023-01-29T06:19:17;32.78;;;21.65;;
35592;SDS011;64447;52.140;5.602;2023-01-29T06:21:44;35.03;;;22.75;;
35592;SDS011;64447;52.140;5.602;2023-01-29T06:24:10;37.20;;;21.60;;
35592;SDS011;64447;52.140;5.602;2023-01-29T06:26:35;36.28;;;22.77;;
35592;SDS011;64447;52.140;5.602;2023-01-29T06:29:01;33.38;;;21.92;;
35592;SDS011;64447;52.140;5.602;2023-01-29T06:31:26;38.42;;;21.98;;
35592;SDS011;64447;52.140;5.602;2023-01-29T06:33:52;35.80;;;22.42;;
35592;SDS011;64447;52.140;5.602;2023-01-29T06:36:17;37.50;;;22.73;;
35592;SDS011;64447;52.140;5.602;2023-01-29T06:42:05;37.28;;;21.23;;
35592;SDS011;64447;52.140;5.602;2023-01-29T06:44:30;37.40;;;23.00;;
35592;SDS011;64447;52.140;5.602;2023-01-29T06:46:56;38.53;;;23.17;;
35592;SDS011;64447;52.140;5.602;2023-01-29T06:49:22;32.40;;;22.23;;
35592;SDS011;64447;52.140;5.602;2023-01-29T06:51:47;35.78;;;22.45;;
35592;SDS011;64447;52.140;5.602;2023-01-29T06:54:13;34.92;;;21.17;;
35592;SDS011;64447;52.140;5.602;2023-01-29T06:56:38;36.03;;;22.10;;
35592;SDS011;64447;52.140;5.602;2023-01-29T06:59:04;35.75;;;21.63;;
35592;SDS011;64447;52.140;5.602;2023-01-29T07:01:30;36.20;;;20.92;;
35592;SDS011;64447;52.140;5.602;2023-01-29T07:03:55;35.70;;;22.15;;
35592;SDS011;64447;52.140;5.602;2023-01-29T07:06:25;32.45;;;21.60;;
35592;SDS011;64447;52.140;5.602;2023-01-29T07:12:14;31.67;;;21.45;;
35592;SDS011;64447;52.140;5.602;2023-01-29T07:14:39;35.38;;;22.63;;
35592;SDS011;64447;52.140;5.602;2023-01-29T07:17:05;33.22;;;21.08;;
35592;SDS011;64447;52.140;5.602;2023-01-29T07:19:30;36.35;;;21.60;;
35592;SDS011;64447;52.140;5.602;2023-01-29T07:21:57;34.90;;;22.05;;
35592;SDS011;64447;52.140;5.602;2023-01-29T07:24:26;34.03;;;21.50;;
35592;SDS011;64447;52.140;5.602;2023-01-29T07:26:51;35.72;;;22.15;;
35592;SDS011;64447;52.140;5.602;2023-01-29T07:29:17;38.22;;;23.60;;
35592;SDS011;64447;52.140;5.602;2023-01-29T07:31:43;38.97;;;25.95;;
35592;SDS011;64447;52.140;5.602;2023-01-29T07:34:08;34.65;;;22.88;;
35592;SDS011;64447;52.140;5.602;2023-01-29T07:36:34;34.30;;;22.50;;
35592;SDS011;64447;52.140;5.602;2023-01-29T07:42:23;37.13;;;22.20;;
35592;SDS011;64447;52.140;5.602;2023-01-29T07:44:48;39.08;;;22.73;;
35592;SDS011;64447;52.140;5.602;2023-01-29T07:47:14;35.70;;;22.50;;
35592;SDS011;64447;52.140;5.602;2023-01-29T07:49:40;37.33;;;23.55;;
35592;SDS011;64447;52.140;5.602;2023-01-29T07:52:05;37.67;;;22.98;;
35592;SDS011;64447;52.140;5.602;2023-01-29T07:54:31;35.20;;;23.98;;
35592;SDS011;64447;52.140;5.602;2023-01-29T07:56:56;37.28;;;22.90;;
35592;SDS011;64447;52.140;5.602;2023-01-29T07:59:22;39.25;;;23.52;;
35592;SDS011;64447;52.140;5.602;2023-01-29T08:01:47;39.47;;;22.85;;
35592;SDS011;64447;52.140;5.602;2023-01-29T08:04:13;32.25;;;20.92;;
35592;SDS011;64447;52.140;5.602;2023-01-29T08:06:39;35.15;;;21.35;;
35592;SDS011;64447;52.140;5.602;2023-01-29T08:12:26;37.08;;;23.15;;
35592;SDS011;64447;52.140;5.602;2023-01-29T08:14:52;36.13;;;22.83;;
35592;SDS011;64447;52.140;5.602;2023-01-29T08:17:17;33.30;;;21.63;;
35592;SDS011;64447;52.140;5.602;2023-01-29T08:19:43;38.65;;;22.20;;
35592;SDS011;64447;52.140;5.602;2023-01-29T08:22:09;33.13;;;21.23;;
35592;SDS011;64447;52.140;5.602;2023-01-29T08:24:34;42.70;;;22.85;;
35592;SDS011;64447;52.140;5.602;2023-01-29T08:27:00;34.72;;;22.83;;
35592;SDS011;64447;52.140;5.602;2023-01-29T08:29:25;37.72;;;23.58;;
35592;SDS011;64447;52.140;5.602;2023-01-29T08:31:51;36.50;;;23.02;;
35592;SDS011;64447;52.140;5.602;2023-01-29T08:34:16;34.20;;;22.00;;
35592;SDS011;64447;52.140;5.602;2023-01-29T08:36:42;36.00;;;22.35;;
35592;SDS011;64447;52.140;5.602;2023-01-29T08:42:29;34.28;;;20.52;;
35592;SDS011;64447;52.140;5.602;2023-01-29T08:44:55;34.55;;;21.63;;
35592;SDS011;64447;52.140;5.602;2023-01-29T08:47:20;32.35;;;21.65;;
35592;SDS011;64447;52.140;5.602;2023-01-29T08:49:46;35.88;;;22.60;;
35592;SDS011;64447;52.140;5.602;2023-01-29T08:52:12;36.05;;;22.05;;
35592;SDS011;64447;52.140;5.602;2023-01-29T08:54:37;31.52;;;21.00;;
35592;SDS011;64447;52.140;5.602;2023-01-29T08:57:03;33.63;;;20.90;;
35592;SDS011;64447;52.140;5.602;2023-01-29T08:59:28;34.03;;;20.60;;
35592;SDS011;64447;52.140;5.602;2023-01-29T09:01:54;31.48;;;20.73;;
35592;SDS011;64447;52.140;5.602;2023-01-29T09:04:19;34.03;;;21.15;;
35592;SDS011;64447;52.140;5.602;2023-01-29T09:06:46;34.78;;;22.25;;
35592;SDS011;64447;52.140;5.602;2023-01-29T09:12:33;31.08;;;20.58;;
35592;SDS011;64447;52.140;5.602;2023-01-29T09:14:59;36.03;;;21.65;;
35592;SDS011;64447;52.140;5.602;2023-01-29T09:17:24;31.38;;;21.27;;
35592;SDS011;64447;52.140;5.602;2023-01-29T09:19:50;35.45;;;22.05;;
35592;SDS011;64447;52.140;5.602;2023-01-29T09:22:17;33.20;;;19.88;;
35592;SDS011;64447;52.140;5.602;2023-01-29T09:24:44;34.85;;;23.17;;
35592;SDS011;64447;52.140;5.602;2023-01-29T09:27:10;31.85;;;20.80;;
35592;SDS011;64447;52.140;5.602;2023-01-29T09:29:35;34.78;;;21.73;;
35592;SDS011;64447;52.140;5.602;2023-01-29T09:32:02;33.42;;;21.38;;
35592;SDS011;64447;52.140;5.602;2023-01-29T09:34:28;35.33;;;21.45;;
35592;SDS011;64447;52.140;5.602;2023-01-29T09:36:54;32.67;;;20.60;;
35592;SDS011;64447;52.140;5.602;2023-01-29T09:42:43;33.03;;;20.20;;
35592;SDS011;64447;52.140;5.602;2023-01-29T09:45:15;34.65;;;20.15;;
35592;SDS011;64447;52.140;5.602;2023-01-29T09:47:48;33.40;;;20.65;;
35592;SDS011;64447;52.140;5.602;2023-01-29T09:52:50;32.60;;;20.25;;
35592;SDS011;64447;52.140;5.602;2023-01-29T09:55:30;33.50;;;19.30;;
35592;SDS011;64447;52.140;5.602;2023-01-29T09:58:17;28.35;;;18.27;;
35592;SDS011;64447;52.140;5.602;2023-01-29T10:00:52;31.60;;;19.92;;
35592;SDS011;64447;52.140;5.602;2023-01-29T10:06:27;28.25;;;19.40;;
35592;SDS011;64447;52.140;5.602;2023-01-29T10:15:15;33.03;;;19.40;;
35592;SDS011;64447;52.140;5.602;2023-01-29T10:25:54;30.45;;;19.65;;
35592;SDS011;64447;52.140;5.602;2023-01-29T10:31:25;33.30;;;19.45;;
35592;SDS011;64447;52.140;5.602;2023-01-29T10:36:27;33.60;;;20.60;;
35592;SDS011;64447;52.140;5.602;2023-01-29T10:39:16;33.83;;;19.73;;
35592;SDS011;64447;52.140;5.602;2023-01-29T10:44:26;28.63;;;19.23;;
35592;SDS011;64447;52.140;5.602;2023-01-29T10:50:00;29.65;;;19.77;;
35592;SDS011;64447;52.140;5.602;2023-01-29T10:58:44;32.58;;;19.45;;
35592;SDS011;64447;52.140;5.602;2023-01-29T11:01:15;39.45;;;23.20;;
35592;SDS011;64447;52.140;5.602;2023-01-29T11:03:41;32.05;;;20.65;;
35592;SDS011;64447;52.140;5.602;2023-01-29T11:12:15;38.30;;;22.00;;
35592;SDS011;64447;52.140;5.602;2023-01-29T11:14:57;33.33;;;21.35;;
35592;SDS011;64447;52.140;5.602;2023-01-29T11:17:29;34.42;;;21.50;;
35592;SDS011;64447;52.140;5.602;2023-01-29T11:19:54;37.47;;;23.17;;
35592;SDS011;64447;52.140;5.602;2023-01-29T11:22:21;41.28;;;24.08;;
35592;SDS011;64447;52.140;5.602;2023-01-29T11:28:10;42.17;;;24.50;;
35592;SDS011;64447;52.140;5.602;2023-01-29T11:30:39;38.85;;;22.88;;
35592;SDS011;64447;52.140;5.602;2023-01-29T11:33:10;35.70;;;22.23;;
35592;SDS011;64447;52.140;5.602;2023-01-29T11:35:44;37.00;;;22.67;;
35592;SDS011;64447;52.140;5.602;2023-01-29T11:38:26;36.63;;;22.35;;
35592;SDS011;64447;52.140;5.602;2023-01-29T11:41:06;39.00;;;23.00;;
35592;SDS011;64447;52.140;5.602;2023-01-29T11:43:38;36.55;;;22.90;;
35592;SDS011;64447;52.140;5.602;2023-01-29T11:46:10;39.10;;;24.60;;
35592;SDS011;64447;52.140;5.602;2023-01-29T11:48:46;37.85;;;24.08;;
35592;SDS011;64447;52.140;5.602;2023-01-29T11:51:22;37.83;;;24.13;;
35592;SDS011;64447;52.140;5.602;2023-01-29T11:53:54;39.63;;;24.63;;
35592;SDS011;64447;52.140;5.602;2023-01-29T11:56:31;39.92;;;24.70;;
35592;SDS011;64447;52.140;5.602;2023-01-29T11:59:03;38.63;;;24.27;;
35592;SDS011;64447;52.140;5.602;2023-01-29T12:01:33;40.00;;;24.70;;
35592;SDS011;64447;52.140;5.602;2023-01-29T12:04:02;41.92;;;24.40;;
35592;SDS011;64447;52.140;5.602;2023-01-29T12:06:43;39.70;;;23.95;;
35592;SDS011;64447;52.140;5.602;2023-01-29T12:09:16;38.78;;;24.10;;
35592;SDS011;64447;52.140;5.602;2023-01-29T12:11:45;39.30;;;24.30;;
35592;SDS011;64447;52.140;5.602;2023-01-29T12:14:30;38.65;;;24.38;;
35592;SDS011;64447;52.140;5.602;2023-01-29T12:17:05;42.65;;;25.10;;
35592;SDS011;64447;52.140;5.602;2023-01-29T12:22:22;43.65;;;26.30;;
35592;SDS011;64447;52.140;5.602;2023-01-29T12:25:08;42.72;;;25.35;;
35592;SDS011;64447;52.140;5.602;2023-01-29T12:27:43;47.30;;;26.35;;
35592;SDS011;64447;52.140;5.602;2023-01-29T12:30:21;49.10;;;26.88;;
35592;SDS011;64447;52.140;5.602;2023-01-29T12:33:02;47.30;;;27.30;;
35592;SDS011;64447;52.140;5.602;2023-01-29T12:35:43;45.45;;;28.10;;
35592;SDS011;64447;52.140;5.602;2023-01-29T12:41:56;45.95;;;27.98;;
35592;SDS011;64447;52.140;5.602;2023-01-29T12:47:30;47.20;;;28.67;;
35592;SDS011;64447;52.140;5.602;2023-01-29T12:50:02;42.67;;;27.73;;
35592;SDS011;64447;52.140;5.602;2023-01-29T12:52:44;44.17;;;26.02;;
35592;SDS011;64447;52.140;5.602;2023-01-29T13:07:46;45.17;;;28.05;;
35592;SDS011;64447;52.140;5.602;2023-01-29T13:16:04;49.17;;;28.35;;
35592;SDS011;64447;52.140;5.602;2023-01-29T13:18:44;43.33;;;27.15;;
35592;SDS011;64447;52.140;5.602;2023-01-29T13:21:16;44.70;;;27.70;;
35592;SDS011;64447;52.140;5.602;2023-01-29T13:23:48;42.67;;;26.67;;
35592;SDS011;64447;52.140;5.602;2023-01-29T13:26:20;48.45;;;28.35;;
35592;SDS011;64447;52.140;5.602;2023-01-29T13:28:47;49.90;;;27.83;;
35592;SDS011;64447;52.140;5.602;2023-01-29T13:31:23;43.83;;;26.67;;
35592;SDS011;64447;52.140;5.602;2023-01-29T13:34:23;46.83;;;27.65;;
35592;SDS011;64447;52.140;5.602;2023-01-29T13:36:59;47.72;;;28.20;;
35592;SDS011;64447;52.140;5.602;2023-01-29T13:39:28;50.65;;;30.02;;
35592;SDS011;64447;52.140;5.602;2023-01-29T13:41:59;48.15;;;28.20;;
35592;SDS011;64447;52.140;5.602;2023-01-29T13:44:36;47.35;;;27.80;;
35592;SDS011;64447;52.140;5.602;2023-01-29T13:47:05;52.97;;;28.52;;
35592;SDS011;64447;52.140;5.602;2023-01-29T13:55:08;53.85;;;28.35;;
35592;SDS011;64447;52.140;5.602;2023-01-29T13:57:59;45.47;;;27.83;;
35592;SDS011;64447;52.140;5.602;2023-01-29T14:07:55;45.33;;;26.73;;
35592;SDS011;64447;52.140;5.602;2023-01-29T14:10:24;48.67;;;28.02;;
35592;SDS011;64447;52.140;5.602;2023-01-29T14:12:51;46.33;;;28.67;;
35592;SDS011;64447;52.140;5.602;2023-01-29T14:15:40;43.00;;;26.25;;
35592;SDS011;64447;52.140;5.602;2023-01-29T14:20:58;44.22;;;27.23;;
35592;SDS011;64447;52.140;5.602;2023-01-29T14:26:53;42.47;;;26.58;;
35592;SDS011;64447;52.140;5.602;2023-01-29T14:29:28;44.55;;;27.75;;
35592;SDS011;64447;52.140;5.602;2023-01-29T14:34:30;43.80;;;26.80;;
35592;SDS011;64447;52.140;5.602;2023-01-29T14:37:03;43.33;;;25.80;;
35592;SDS011;64447;52.140;5.602;2023-01-29T14:43:15;41.53;;;25.85;;
35592;SDS011;64447;52.140;5.602;2023-01-29T14:45:45;42.63;;;25.42;;
35592;SDS011;64447;52.140;5.602;2023-01-29T14:48:19;49.53;;;27.83;;
35592;SDS011;64447;52.140;5.602;2023-01-29T14:51:07;46.10;;;27.38;;
35592;SDS011;64447;52.140;5.602;2023-01-29T14:53:44;43.05;;;26.75;;
35592;SDS011;64447;52.140;5.602;2023-01-29T14:59:09;47.90;;;28.30;;
35592;SDS011;64447;52.140;5.602;2023-01-29T15:01:55;46.90;;;26.90;;
35592;SDS011;64447;52.140;5.602;2023-01-29T15:04:25;43.30;;;26.35;;
35592;SDS011;64447;52.140;5.602;2023-01-29T15:09:51;46.83;;;27.33;;
35592;SDS011;64447;52.140;5.602;2023-01-29T15:12:44;42.83;;;26.48;;
35592;SDS011;64447;52.140;5.602;2023-01-29T15:15:16;43.92;;;27.17;;
35592;SDS011;64447;52.140;5.602;2023-01-29T15:20:42;54.95;;;28.35;;
35592;SDS011;64447;52.140;5.602;2023-01-29T15:25:50;44.47;;;26.63;;
35592;SDS011;64447;52.140;5.602;2023-01-29T15:28:19;50.00;;;29.10;;
35592;SDS011;64447;52.140;5.602;2023-01-29T15:30:45;50.20;;;28.85;;
35592;SDS011;64447;52.140;5.602;2023-01-29T15:33:17;50.67;;;28.65;;
35592;SDS011;64447;52.140;5.602;2023-01-29T15:35:44;43.97;;;26.60;;
35592;SDS011;64447;52.140;5.602;2023-01-29T15:38:20;48.67;;;28.83;;
35592;SDS011;64447;52.140;5.602;2023-01-29T15:45:48;47.58;;;27.33;;
35592;SDS011;64447;52.140;5.602;2023-01-29T15:48:19;45.97;;;27.58;;
35592;SDS011;64447;52.140;5.602;2023-01-29T15:50:53;50.22;;;30.73;;
35592;SDS011;64447;52.140;5.602;2023-01-29T15:53:20;49.42;;;28.77;;
35592;SDS011;64447;52.140;5.602;2023-01-29T15:55:52;52.90;;;34.75;;
35592;SDS011;64447;52.140;5.602;2023-01-29T15:58:23;47.40;;;29.70;;
35592;SDS011;64447;52.140;5.602;2023-01-29T16:00:54;53.15;;;30.25;;
35592;SDS011;64447;52.140;5.602;2023-01-29T16:03:22;51.53;;;32.35;;
35592;SDS011;64447;52.140;5.602;2023-01-29T16:05:49;51.22;;;30.73;;
35592;SDS011;64447;52.140;5.602;2023-01-29T16:08:16;45.75;;;29.23;;
35592;SDS011;64447;52.140;5.602;2023-01-29T16:10:51;49.45;;;28.42;;
35592;SDS011;64447;52.140;5.602;2023-01-29T16:13:22;51.40;;;30.50;;
35592;SDS011;64447;52.140;5.602;2023-01-29T16:16:01;50.15;;;28.92;;
35592;SDS011;64447;52.140;5.602;2023-01-29T16:18:43;49.95;;;28.45;;
35592;SDS011;64447;52.140;5.602;2023-01-29T16:21:14;49.58;;;29.77;;
35592;SDS011;64447;52.140;5.602;2023-01-29T16:23:42;47.78;;;28.70;;
35592;SDS011;64447;52.140;5.602;2023-01-29T16:26:47;49.45;;;29.48;;
35592;SDS011;64447;52.140;5.602;2023-01-29T16:29:20;47.55;;;29.48;;
35592;SDS011;64447;52.140;5.602;2023-01-29T16:31:49;49.25;;;30.35;;
35592;SDS011;64447;52.140;5.602;2023-01-29T16:34:24;47.65;;;30.15;;
35592;SDS011;64447;52.140;5.602;2023-01-29T16:36:55;50.05;;;28.13;;
35592;SDS011;64447;52.140;5.602;2023-01-29T16:42:44;50.55;;;29.20;;
35592;SDS011;64447;52.140;5.602;2023-01-29T16:45:23;48.20;;;28.65;;
35592;SDS011;64447;52.140;5.602;2023-01-29T16:51:04;48.33;;;29.15;;
35592;SDS011;64447;52.140;5.602;2023-01-29T16:53:36;51.28;;;30.42;;
35592;SDS011;64447;52.140;5.602;2023-01-29T16:56:08;52.67;;;30.00;;
35592;SDS011;64447;52.140;5.602;2023-01-29T16:58:33;54.83;;;30.83;;
35592;SDS011;64447;52.140;5.602;2023-01-29T17:01:00;52.30;;;32.17;;
35592;SDS011;64447;52.140;5.602;2023-01-29T17:03:33;56.08;;;31.40;;
35592;SDS011;64447;52.140;5.602;2023-01-29T17:08:48;50.05;;;30.60;;
35592;SDS011;64447;52.140;5.602;2023-01-29T17:11:22;48.13;;;28.55;;
35592;SDS011;64447;52.140;5.602;2023-01-29T17:14:07;48.58;;;30.50;;
35592;SDS011;64447;52.140;5.602;2023-01-29T17:16:34;53.38;;;31.02;;
35592;SDS011;64447;52.140;5.602;2023-01-29T17:19:13;55.30;;;30.10;;
35592;SDS011;64447;52.140;5.602;2023-01-29T17:21:42;56.28;;;30.55;;
35592;SDS011;64447;52.140;5.602;2023-01-29T17:24:08;55.67;;;30.75;;
35592;SDS011;64447;52.140;5.602;2023-01-29T17:26:33;53.47;;;30.90;;
35592;SDS011;64447;52.140;5.602;2023-01-29T17:28:59;54.50;;;31.80;;
35592;SDS011;64447;52.140;5.602;2023-01-29T17:31:24;49.35;;;28.25;;
35592;SDS011;64447;52.140;5.602;2023-01-29T17:33:50;53.70;;;30.90;;
35592;SDS011;64447;52.140;5.602;2023-01-29T17:36:16;53.95;;;30.95;;
35592;SDS011;64447;52.140;5.602;2023-01-29T17:38:42;52.78;;;30.05;;
35592;SDS011;64447;52.140;5.602;2023-01-29T17:43:51;54.10;;;29.75;;
35592;SDS011;64447;52.140;5.602;2023-01-29T17:46:16;49.20;;;29.90;;
35592;SDS011;64447;52.140;5.602;2023-01-29T17:48:43;52.33;;;29.88;;
35592;SDS011;64447;52.140;5.602;2023-01-29T17:51:12;72.50;;;39.53;;
35592;SDS011;64447;52.140;5.602;2023-01-29T17:53:40;65.30;;;34.80;;
35592;SDS011;64447;52.140;5.602;2023-01-29T17:56:12;62.92;;;32.70;;
35592;SDS011;64447;52.140;5.602;2023-01-29T17:58:44;58.80;;;32.08;;
35592;SDS011;64447;52.140;5.602;2023-01-29T18:01:09;62.60;;;34.08;;
35592;SDS011;64447;52.140;5.602;2023-01-29T18:03:36;66.22;;;36.50;;
35592;SDS011;64447;52.140;5.602;2023-01-29T18:06:01;51.65;;;28.92;;
35592;SDS011;64447;52.140;5.602;2023-01-29T18:08:28;54.85;;;31.35;;
35592;SDS011;64447;52.140;5.602;2023-01-29T18:10:56;58.13;;;32.33;;
35592;SDS011;64447;52.140;5.602;2023-01-29T18:13:22;69.15;;;36.05;;
35592;SDS011;64447;52.140;5.602;2023-01-29T18:15:48;59.90;;;31.88;;
35592;SDS011;64447;52.140;5.602;2023-01-29T18:18:15;59.50;;;32.22;;
35592;SDS011;64447;52.140;5.602;2023-01-29T18:20:44;61.80;;;32.33;;
35592;SDS011;64447;52.140;5.602;2023-01-29T18:23:10;56.55;;;29.17;;